sensor_id;sensor_type;location;lat;lon;timestamp;P1;durP1;ratioP1;P2;durP2;ratioP2
4122;SDS011;2075;51.062;6.920;2023-02-22T00:00:19;152.97;;;22.50;;
4122;SDS011;2075;51.062;6.920;2023-02-22T00:03:11;130.50;;;21.33;;
4122;SDS011;2075;51.062;6.920;2023-02-22T00:05:59;153.07;;;21.80;;
4122;SDS011;2075;51.062;6.920;2023-02-22T00:08:49;144.37;;;23.07;;
4122;SDS011;2075;51.062;6.920;2023-02-22T00:11:35;233.80;;;21.90;;
4122;SDS011;2075;51.062;6.920;2023-02-22T00:14:21;146.40;;;18.93;;
4122;SDS011;2075;51.062;6.920;2023-02-22T00:17:10;167.57;;;21.83;;
4122;SDS011;2075;51.062;6.920;2023-02-22T00:19:56;151.93;;;21.67;;
4122;SDS011;2075;51.062;6.920;2023-02-22T00:22:42;128.57;;;21.40;;
4122;SDS011;2075;51.062;6.920;2023-02-22T00:25:30;125.00;;;21.20;;
4122;SDS011;2075;51.062;6.920;2023-02-22T00:28:15;168.33;;;23.43;;
4122;SDS011;2075;51.062;6.920;2023-02-22T00:31:01;95.40;;;20.77;;
4122;SDS011;2075;51.062;6.920;2023-02-22T00:33:48;176.63;;;22.60;;
4122;SDS011;2075;51.062;6.920;2023-02-22T00:36:34;206.60;;;24.37;;
4122;SDS011;2075;51.062;6.920;2023-02-22T00:39:19;121.90;;;20.37;;
4122;SDS011;2075;51.062;6.920;2023-02-22T00:42:06;139.00;;;21.17;;
4122;SDS011;2075;51.062;6.920;2023-02-22T00:44:52;199.23;;;22.63;;
4122;SDS011;2075;51.062;6.920;2023-02-22T00:47:37;102.23;;;19.47;;
4122;SDS011;2075;51.062;6.920;2023-02-22T00:50:23;158.97;;;22.67;;
4122;SDS011;2075;51.062;6.920;2023-02-22T00:53:09;93.27;;;21.27;;
4122;SDS011;2075;51.062;6.920;2023-02-22T00:55:55;165.10;;;21.63;;
4122;SDS011;2075;51.062;6.920;2023-02-22T00:58:42;141.97;;;22.07;;
4122;SDS011;2075;51.062;6.920;2023-02-22T01:01:27;137.70;;;20.53;;
4122;SDS011;2075;51.062;6.920;2023-02-22T01:04:12;131.87;;;21.90;;
4122;SDS011;2075;51.062;6.920;2023-02-22T01:06:58;140.87;;;23.03;;
4122;SDS011;2075;51.062;6.920;2023-02-22T01:09:44;126.77;;;21.03;;
4122;SDS011;2075;51.062;6.920;2023-02-22T01:12:29;111.70;;;20.40;;
4122;SDS011;2075;51.062;6.920;2023-02-22T01:15:18;167.30;;;21.20;;
4122;SDS011;2075;51.062;6.920;2023-02-22T01:18:05;108.77;;;22.63;;
4122;SDS011;2075;51.062;6.920;2023-02-22T01:20:51;121.47;;;20.20;;
4122;SDS011;2075;51.062;6.920;2023-02-22T01:23:36;110.20;;;19.10;;
4122;SDS011;2075;51.062;6.920;2023-02-22T01:26:21;93.50;;;19.80;;
4122;SDS011;2075;51.062;6.920;2023-02-22T01:29:07;169.90;;;23.57;;
4122;SDS011;2075;51.062;6.920;2023-02-22T01:31:54;129.63;;;23.57;;
4122;SDS011;2075;51.062;6.920;2023-02-22T01:34:40;107.93;;;22.23;;
4122;SDS011;2075;51.062;6.920;2023-02-22T01:37:28;91.27;;;20.60;;
4122;SDS011;2075;51.062;6.920;2023-02-22T01:40:16;83.00;;;19.27;;
4122;SDS011;2075;51.062;6.920;2023-02-22T01:43:05;130.00;;;21.40;;
4122;SDS011;2075;51.062;6.920;2023-02-22T01:46:00;105.70;;;20.93;;
4122;SDS011;2075;51.062;6.920;2023-02-22T01:48:48;142.80;;;22.20;;
4122;SDS011;2075;51.062;6.920;2023-02-22T01:51:39;132.40;;;19.90;;
4122;SDS011;2075;51.062;6.920;2023-02-22T01:54:28;140.30;;;19.73;;
4122;SDS011;2075;51.062;6.920;2023-02-22T01:57:17;125.17;;;20.50;;
4122;SDS011;2075;51.062;6.920;2023-02-22T02:00:09;134.40;;;19.50;;
4122;SDS011;2075;51.062;6.920;2023-02-22T02:02:58;209.17;;;22.63;;
4122;SDS011;2075;51.062;6.920;2023-02-22T02:05:47;125.50;;;20.70;;
4122;SDS011;2075;51.062;6.920;2023-02-22T02:08:37;76.67;;;19.70;;
4122;SDS011;2075;51.062;6.920;2023-02-22T02:11:30;135.73;;;19.87;;
4122;SDS011;2075;51.062;6.920;2023-02-22T02:14:17;92.50;;;18.33;;
4122;SDS011;2075;51.062;6.920;2023-02-22T02:17:02;106.50;;;19.60;;
4122;SDS011;2075;51.062;6.920;2023-02-22T02:19:51;109.57;;;19.70;;
4122;SDS011;2075;51.062;6.920;2023-02-22T02:22:45;111.63;;;20.20;;
4122;SDS011;2075;51.062;6.920;2023-02-22T02:25:48;71.77;;;18.93;;
4122;SDS011;2075;51.062;6.920;2023-02-22T02:29:05;113.07;;;20.50;;
4122;SDS011;2075;51.062;6.920;2023-02-22T02:35:29;145.37;;;18.80;;
4122;SDS011;2075;51.062;6.920;2023-02-22T02:38:27;144.07;;;20.10;;
4122;SDS011;2075;51.062;6.920;2023-02-22T02:41:18;164.17;;;20.43;;
4122;SDS011;2075;51.062;6.920;2023-02-22T02:44:10;150.17;;;19.00;;
4122;SDS011;2075;51.062;6.920;2023-02-22T02:46:59;131.03;;;21.40;;
4122;SDS011;2075;51.062;6.920;2023-02-22T02:49:49;158.83;;;20.37;;
4122;SDS011;2075;51.062;6.920;2023-02-22T02:52:38;169.53;;;20.73;;
4122;SDS011;2075;51.062;6.920;2023-02-22T02:55:26;121.10;;;20.80;;
4122;SDS011;2075;51.062;6.920;2023-02-22T02:58:15;149.03;;;18.63;;
4122;SDS011;2075;51.062;6.920;2023-02-22T03:01:02;69.23;;;19.50;;
4122;SDS011;2075;51.062;6.920;2023-02-22T03:07:11;66.77;;;20.57;;
4122;SDS011;2075;51.062;6.920;2023-02-22T03:10:10;54.43;;;18.87;;
4122;SDS011;2075;51.062;6.920;2023-02-22T03:13:07;70.83;;;18.97;;
4122;SDS011;2075;51.062;6.920;2023-02-22T03:16:00;106.23;;;19.40;;
4122;SDS011;2075;51.062;6.920;2023-02-22T03:18:57;54.50;;;17.73;;
4122;SDS011;2075;51.062;6.920;2023-02-22T03:21:52;124.13;;;21.00;;
4122;SDS011;2075;51.062;6.920;2023-02-22T03:24:44;53.13;;;17.60;;
4122;SDS011;2075;51.062;6.920;2023-02-22T03:27:37;103.73;;;20.70;;
4122;SDS011;2075;51.062;6.920;2023-02-22T03:30:30;86.20;;;20.03;;
4122;SDS011;2075;51.062;6.920;2023-02-22T03:33:22;65.77;;;19.30;;
4122;SDS011;2075;51.062;6.920;2023-02-22T03:36:13;75.67;;;20.70;;
4122;SDS011;2075;51.062;6.920;2023-02-22T03:39:02;85.13;;;18.10;;
4122;SDS011;2075;51.062;6.920;2023-02-22T03:41:50;68.00;;;18.63;;
4122;SDS011;2075;51.062;6.920;2023-02-22T03:44:39;80.47;;;19.33;;
4122;SDS011;2075;51.062;6.920;2023-02-22T03:47:42;90.23;;;19.93;;
4122;SDS011;2075;51.062;6.920;2023-02-22T03:50:32;79.47;;;17.97;;
4122;SDS011;2075;51.062;6.920;2023-02-22T03:53:20;90.27;;;20.70;;
4122;SDS011;2075;51.062;6.920;2023-02-22T03:56:07;108.77;;;21.53;;
4122;SDS011;2075;51.062;6.920;2023-02-22T03:58:58;69.87;;;20.93;;
4122;SDS011;2075;51.062;6.920;2023-02-22T04:01:44;54.20;;;20.10;;
4122;SDS011;2075;51.062;6.920;2023-02-22T04:04:29;54.70;;;21.83;;
4122;SDS011;2075;51.062;6.920;2023-02-22T04:07:15;56.20;;;20.20;;
4122;SDS011;2075;51.062;6.920;2023-02-22T04:10:00;57.00;;;20.03;;
4122;SDS011;2075;51.062;6.920;2023-02-22T04:12:47;57.47;;;20.60;;
4122;SDS011;2075;51.062;6.920;2023-02-22T04:15:34;66.83;;;19.83;;
4122;SDS011;2075;51.062;6.920;2023-02-22T04:18:25;58.40;;;19.87;;
4122;SDS011;2075;51.062;6.920;2023-02-22T04:21:11;52.73;;;19.40;;
4122;SDS011;2075;51.062;6.920;2023-02-22T04:24:00;79.63;;;19.10;;
4122;SDS011;2075;51.062;6.920;2023-02-22T04:26:46;64.33;;;18.63;;
4122;SDS011;2075;51.062;6.920;2023-02-22T04:29:32;42.03;;;17.93;;
4122;SDS011;2075;51.062;6.920;2023-02-22T04:32:20;49.83;;;19.90;;
4122;SDS011;2075;51.062;6.920;2023-02-22T04:35:05;51.03;;;19.13;;
4122;SDS011;2075;51.062;6.920;2023-02-22T04:37:52;55.93;;;20.03;;
4122;SDS011;2075;51.062;6.920;2023-02-22T04:40:37;53.43;;;21.20;;
4122;SDS011;2075;51.062;6.920;2023-02-22T04:43:24;49.10;;;19.27;;
4122;SDS011;2075;51.062;6.920;2023-02-22T04:46:12;66.20;;;21.80;;
4122;SDS011;2075;51.062;6.920;2023-02-22T04:48:59;64.53;;;20.13;;
4122;SDS011;2075;51.062;6.920;2023-02-22T04:51:47;50.50;;;21.50;;
4122;SDS011;2075;51.062;6.920;2023-02-22T04:54:34;48.90;;;20.10;;
4122;SDS011;2075;51.062;6.920;2023-02-22T04:57:19;39.43;;;18.67;;
4122;SDS011;2075;51.062;6.920;2023-02-22T05:00:07;43.27;;;20.10;;
4122;SDS011;2075;51.062;6.920;2023-02-22T05:02:54;50.73;;;21.00;;
4122;SDS011;2075;51.062;6.920;2023-02-22T05:05:41;57.97;;;20.60;;
4122;SDS011;2075;51.062;6.920;2023-02-22T05:08:26;55.90;;;21.13;;
4122;SDS011;2075;51.062;6.920;2023-02-22T05:11:12;45.30;;;19.80;;
4122;SDS011;2075;51.062;6.920;2023-02-22T05:13:57;42.60;;;19.47;;
4122;SDS011;2075;51.062;6.920;2023-02-22T05:16:42;71.50;;;20.60;;
4122;SDS011;2075;51.062;6.920;2023-02-22T05:19:28;63.00;;;21.03;;
4122;SDS011;2075;51.062;6.920;2023-02-22T05:22:14;51.80;;;18.50;;
4122;SDS011;2075;51.062;6.920;2023-02-22T05:25:00;48.93;;;19.07;;
4122;SDS011;2075;51.062;6.920;2023-02-22T05:27:50;64.57;;;19.67;;
4122;SDS011;2075;51.062;6.920;2023-02-22T05:30:36;70.50;;;18.10;;
4122;SDS011;2075;51.062;6.920;2023-02-22T05:33:22;100.60;;;18.57;;
4122;SDS011;2075;51.062;6.920;2023-02-22T05:36:08;152.90;;;20.23;;
4122;SDS011;2075;51.062;6.920;2023-02-22T05:38:55;118.13;;;19.10;;
4122;SDS011;2075;51.062;6.920;2023-02-22T05:41:40;113.33;;;17.47;;
4122;SDS011;2075;51.062;6.920;2023-02-22T05:44:26;97.73;;;17.90;;
4122;SDS011;2075;51.062;6.920;2023-02-22T05:47:11;73.40;;;17.67;;
4122;SDS011;2075;51.062;6.920;2023-02-22T05:49:57;108.67;;;18.33;;
4122;SDS011;2075;51.062;6.920;2023-02-22T05:52:44;105.77;;;18.50;;
4122;SDS011;2075;51.062;6.920;2023-02-22T05:55:31;65.67;;;17.23;;
4122;SDS011;2075;51.062;6.920;2023-02-22T05:58:16;93.47;;;19.50;;
4122;SDS011;2075;51.062;6.920;2023-02-22T06:01:02;90.27;;;18.10;;
4122;SDS011;2075;51.062;6.920;2023-02-22T06:03:47;49.03;;;17.80;;
4122;SDS011;2075;51.062;6.920;2023-02-22T06:06:34;57.93;;;17.03;;
4122;SDS011;2075;51.062;6.920;2023-02-22T06:09:19;71.00;;;18.93;;
4122;SDS011;2075;51.062;6.920;2023-02-22T06:12:06;72.87;;;20.00;;
4122;SDS011;2075;51.062;6.920;2023-02-22T06:14:52;56.27;;;20.60;;
4122;SDS011;2075;51.062;6.920;2023-02-22T06:17:37;63.53;;;21.20;;
4122;SDS011;2075;51.062;6.920;2023-02-22T06:20:26;50.67;;;21.10;;
4122;SDS011;2075;51.062;6.920;2023-02-22T06:23:13;51.57;;;21.93;;
4122;SDS011;2075;51.062;6.920;2023-02-22T06:26:00;51.23;;;21.70;;
4122;SDS011;2075;51.062;6.920;2023-02-22T06:28:47;46.33;;;21.00;;
4122;SDS011;2075;51.062;6.920;2023-02-22T06:31:33;38.77;;;19.90;;
4122;SDS011;2075;51.062;6.920;2023-02-22T06:34:19;46.37;;;21.47;;
4122;SDS011;2075;51.062;6.920;2023-02-22T06:37:05;46.83;;;21.80;;
4122;SDS011;2075;51.062;6.920;2023-02-22T06:39:51;50.77;;;23.47;;
4122;SDS011;2075;51.062;6.920;2023-02-22T06:42:36;50.23;;;23.97;;
4122;SDS011;2075;51.062;6.920;2023-02-22T06:45:23;52.40;;;25.93;;
4122;SDS011;2075;51.062;6.920;2023-02-22T06:48:08;62.80;;;30.13;;
4122;SDS011;2075;51.062;6.920;2023-02-22T06:50:54;54.27;;;29.37;;
4122;SDS011;2075;51.062;6.920;2023-02-22T06:53:39;56.23;;;29.40;;
4122;SDS011;2075;51.062;6.920;2023-02-22T06:56:25;50.30;;;28.97;;
4122;SDS011;2075;51.062;6.920;2023-02-22T06:59:10;61.87;;;29.20;;
4122;SDS011;2075;51.062;6.920;2023-02-22T07:01:57;55.10;;;29.30;;
4122;SDS011;2075;51.062;6.920;2023-02-22T07:04:43;63.97;;;30.17;;
4122;SDS011;2075;51.062;6.920;2023-02-22T07:07:29;56.43;;;29.50;;
4122;SDS011;2075;51.062;6.920;2023-02-22T07:10:16;55.55;;;33.22;;
4122;SDS011;2075;51.062;6.920;2023-02-22T07:13:04;48.73;;;27.20;;
4122;SDS011;2075;51.062;6.920;2023-02-22T07:15:51;43.37;;;25.40;;
4122;SDS011;2075;51.062;6.920;2023-02-22T07:18:38;44.70;;;26.30;;
4122;SDS011;2075;51.062;6.920;2023-02-22T07:21:23;50.43;;;27.47;;
4122;SDS011;2075;51.062;6.920;2023-02-22T07:24:09;47.90;;;28.73;;
4122;SDS011;2075;51.062;6.920;2023-02-22T07:26:54;50.17;;;28.00;;
4122;SDS011;2075;51.062;6.920;2023-02-22T07:29:41;46.50;;;27.80;;
4122;SDS011;2075;51.062;6.920;2023-02-22T07:32:26;49.83;;;27.77;;
4122;SDS011;2075;51.062;6.920;2023-02-22T07:35:14;41.80;;;25.30;;
4122;SDS011;2075;51.062;6.920;2023-02-22T07:38:01;50.33;;;27.13;;
4122;SDS011;2075;51.062;6.920;2023-02-22T07:40:49;44.50;;;24.67;;
4122;SDS011;2075;51.062;6.920;2023-02-22T07:43:34;44.77;;;24.73;;
4122;SDS011;2075;51.062;6.920;2023-02-22T07:46:20;40.10;;;22.03;;
4122;SDS011;2075;51.062;6.920;2023-02-22T07:49:06;41.77;;;22.63;;
4122;SDS011;2075;51.062;6.920;2023-02-22T07:51:53;49.00;;;22.90;;
4122;SDS011;2075;51.062;6.920;2023-02-22T07:54:38;39.73;;;21.27;;
4122;SDS011;2075;51.062;6.920;2023-02-22T07:57:24;37.17;;;19.73;;
4122;SDS011;2075;51.062;6.920;2023-02-22T08:00:10;36.50;;;20.20;;
4122;SDS011;2075;51.062;6.920;2023-02-22T08:02:58;34.57;;;19.23;;
4122;SDS011;2075;51.062;6.920;2023-02-22T08:05:45;33.43;;;19.50;;
4122;SDS011;2075;51.062;6.920;2023-02-22T08:08:34;35.40;;;18.90;;
4122;SDS011;2075;51.062;6.920;2023-02-22T08:11:19;38.67;;;22.03;;
4122;SDS011;2075;51.062;6.920;2023-02-22T08:14:04;34.10;;;19.80;;
4122;SDS011;2075;51.062;6.920;2023-02-22T08:16:50;41.67;;;21.10;;
4122;SDS011;2075;51.062;6.920;2023-02-22T08:19:35;36.33;;;19.13;;
4122;SDS011;2075;51.062;6.920;2023-02-22T08:22:22;29.63;;;18.70;;
4122;SDS011;2075;51.062;6.920;2023-02-22T08:25:09;32.30;;;18.50;;
4122;SDS011;2075;51.062;6.920;2023-02-22T08:27:55;31.67;;;18.10;;
4122;SDS011;2075;51.062;6.920;2023-02-22T08:30:43;38.03;;;19.00;;
4122;SDS011;2075;51.062;6.920;2023-02-22T08:33:29;33.50;;;18.63;;
4122;SDS011;2075;51.062;6.920;2023-02-22T08:36:14;34.97;;;18.60;;
4122;SDS011;2075;51.062;6.920;2023-02-22T08:39:01;31.37;;;17.57;;
4122;SDS011;2075;51.062;6.920;2023-02-22T08:41:48;27.57;;;16.53;;
4122;SDS011;2075;51.062;6.920;2023-02-22T08:44:33;29.93;;;15.67;;
4122;SDS011;2075;51.062;6.920;2023-02-22T08:47:19;29.40;;;16.00;;
4122;SDS011;2075;51.062;6.920;2023-02-22T08:50:05;26.93;;;14.93;;
4122;SDS011;2075;51.062;6.920;2023-02-22T08:52:52;29.53;;;15.70;;
4122;SDS011;2075;51.062;6.920;2023-02-22T08:55:39;31.00;;;17.47;;
4122;SDS011;2075;51.062;6.920;2023-02-22T08:58:27;28.40;;;17.10;;
4122;SDS011;2075;51.062;6.920;2023-02-22T09:01:12;32.73;;;16.53;;
4122;SDS011;2075;51.062;6.920;2023-02-22T09:03:58;27.57;;;16.77;;
4122;SDS011;2075;51.062;6.920;2023-02-22T09:06:43;29.93;;;15.90;;
4122;SDS011;2075;51.062;6.920;2023-02-22T09:09:34;28.33;;;16.50;;
4122;SDS011;2075;51.062;6.920;2023-02-22T09:12:20;28.40;;;16.03;;
4122;SDS011;2075;51.062;6.920;2023-02-22T09:15:07;26.73;;;14.73;;
4122;SDS011;2075;51.062;6.920;2023-02-22T09:17:52;33.87;;;16.43;;
4122;SDS011;2075;51.062;6.920;2023-02-22T09:20:38;27.20;;;15.67;;
4122;SDS011;2075;51.062;6.920;2023-02-22T09:23:25;26.20;;;14.40;;
4122;SDS011;2075;51.062;6.920;2023-02-22T09:26:10;25.43;;;15.87;;
4122;SDS011;2075;51.062;6.920;2023-02-22T09:28:59;32.27;;;15.60;;
4122;SDS011;2075;51.062;6.920;2023-02-22T09:31:47;26.47;;;15.37;;
4122;SDS011;2075;51.062;6.920;2023-02-22T09:34:34;31.77;;;16.03;;
4122;SDS011;2075;51.062;6.920;2023-02-22T09:37:19;28.00;;;15.57;;
4122;SDS011;2075;51.062;6.920;2023-02-22T09:40:06;28.20;;;15.97;;
4122;SDS011;2075;51.062;6.920;2023-02-22T09:46:06;29.00;;;17.40;;
4122;SDS011;2075;51.062;6.920;2023-02-22T09:49:04;27.50;;;17.03;;
4122;SDS011;2075;51.062;6.920;2023-02-22T09:52:00;28.77;;;16.57;;
4122;SDS011;2075;51.062;6.920;2023-02-22T09:54:51;29.07;;;15.90;;
4122;SDS011;2075;51.062;6.920;2023-02-22T09:57:41;26.57;;;16.27;;
4122;SDS011;2075;51.062;6.920;2023-02-22T10:00:30;38.43;;;15.80;;
4122;SDS011;2075;51.062;6.920;2023-02-22T10:03:19;26.00;;;15.20;;
4122;SDS011;2075;51.062;6.920;2023-02-22T10:06:10;28.70;;;15.03;;
4122;SDS011;2075;51.062;6.920;2023-02-22T10:08:59;24.80;;;14.17;;
4122;SDS011;2075;51.062;6.920;2023-02-22T10:11:51;25.60;;;14.83;;
4122;SDS011;2075;51.062;6.920;2023-02-22T10:15:05;26.13;;;15.40;;
4122;SDS011;2075;51.062;6.920;2023-02-22T10:18:02;26.20;;;15.73;;
4122;SDS011;2075;51.062;6.920;2023-02-22T10:21:05;30.07;;;16.60;;
4122;SDS011;2075;51.062;6.920;2023-02-22T10:24:06;29.30;;;17.40;;
4122;SDS011;2075;51.062;6.920;2023-02-22T10:27:03;28.10;;;15.73;;
4122;SDS011;2075;51.062;6.920;2023-02-22T10:29:51;24.13;;;14.87;;
4122;SDS011;2075;51.062;6.920;2023-02-22T10:32:43;35.17;;;15.93;;
4122;SDS011;2075;51.062;6.920;2023-02-22T10:35:31;26.53;;;14.50;;
4122;SDS011;2075;51.062;6.920;2023-02-22T10:38:21;23.93;;;14.90;;
4122;SDS011;2075;51.062;6.920;2023-02-22T10:41:13;26.53;;;14.20;;
4122;SDS011;2075;51.062;6.920;2023-02-22T10:44:04;23.23;;;13.80;;
4122;SDS011;2075;51.062;6.920;2023-02-22T10:46:50;21.00;;;13.60;;
4122;SDS011;2075;51.062;6.920;2023-02-22T10:49:38;26.37;;;15.53;;
4122;SDS011;2075;51.062;6.920;2023-02-22T10:52:28;24.97;;;14.30;;
4122;SDS011;2075;51.062;6.920;2023-02-22T10:55:18;24.50;;;14.77;;
4122;SDS011;2075;51.062;6.920;2023-02-22T10:58:03;26.23;;;14.10;;
4122;SDS011;2075;51.062;6.920;2023-02-22T11:00:50;23.27;;;13.23;;
4122;SDS011;2075;51.062;6.920;2023-02-22T11:03:36;20.70;;;13.57;;
4122;SDS011;2075;51.062;6.920;2023-02-22T11:06:21;26.47;;;13.30;;
4122;SDS011;2075;51.062;6.920;2023-02-22T11:09:11;19.97;;;13.47;;
4122;SDS011;2075;51.062;6.920;2023-02-22T11:12:09;21.73;;;12.47;;
4122;SDS011;2075;51.062;6.920;2023-02-22T11:18:22;22.07;;;12.37;;
4122;SDS011;2075;51.062;6.920;2023-02-22T11:21:10;19.60;;;11.87;;
4122;SDS011;2075;51.062;6.920;2023-02-22T11:24:00;24.30;;;11.90;;
4122;SDS011;2075;51.062;6.920;2023-02-22T11:26:48;17.20;;;11.50;;
4122;SDS011;2075;51.062;6.920;2023-02-22T11:29:36;20.93;;;11.17;;
4122;SDS011;2075;51.062;6.920;2023-02-22T11:32:22;20.53;;;11.13;;
4122;SDS011;2075;51.062;6.920;2023-02-22T11:35:18;16.37;;;10.77;;
4122;SDS011;2075;51.062;6.920;2023-02-22T11:38:16;16.00;;;10.53;;
4122;SDS011;2075;51.062;6.920;2023-02-22T11:41:06;15.83;;;10.73;;
4122;SDS011;2075;51.062;6.920;2023-02-22T11:44:10;16.63;;;10.23;;
4122;SDS011;2075;51.062;6.920;2023-02-22T11:47:00;14.55;;;9.75;;
4122;SDS011;2075;51.062;6.920;2023-02-22T11:49:49;17.03;;;9.47;;
4122;SDS011;2075;51.062;6.920;2023-02-22T11:52:37;18.63;;;9.87;;
4122;SDS011;2075;51.062;6.920;2023-02-22T11:55:30;15.10;;;9.60;;
4122;SDS011;2075;51.062;6.920;2023-02-22T11:58:27;14.17;;;9.47;;
4122;SDS011;2075;51.062;6.920;2023-02-22T12:01:22;12.00;;;8.90;;
4122;SDS011;2075;51.062;6.920;2023-02-22T12:04:22;14.83;;;8.80;;
4122;SDS011;2075;51.062;6.920;2023-02-22T12:07:26;14.97;;;9.73;;
4122;SDS011;2075;51.062;6.920;2023-02-22T12:10:25;18.77;;;9.07;;
4122;SDS011;2075;51.062;6.920;2023-02-22T12:13:21;15.33;;;8.30;;
4122;SDS011;2075;51.062;6.920;2023-02-22T12:16:21;15.63;;;8.50;;
4122;SDS011;2075;51.062;6.920;2023-02-22T12:19:15;21.33;;;8.83;;
4122;SDS011;2075;51.062;6.920;2023-02-22T12:22:09;20.03;;;7.73;;
4122;SDS011;2075;51.062;6.920;2023-02-22T12:24:59;11.13;;;7.73;;
4122;SDS011;2075;51.062;6.920;2023-02-22T12:27:50;12.40;;;8.13;;
4122;SDS011;2075;51.062;6.920;2023-02-22T12:30:39;14.40;;;8.30;;
4122;SDS011;2075;51.062;6.920;2023-02-22T12:33:30;14.60;;;8.13;;
4122;SDS011;2075;51.062;6.920;2023-02-22T12:36:28;16.10;;;7.80;;
4122;SDS011;2075;51.062;6.920;2023-02-22T12:39:34;17.03;;;8.57;;
4122;SDS011;2075;51.062;6.920;2023-02-22T12:42:29;12.23;;;7.80;;
4122;SDS011;2075;51.062;6.920;2023-02-22T12:45:20;12.57;;;7.60;;
4122;SDS011;2075;51.062;6.920;2023-02-22T12:48:21;11.23;;;7.10;;
4122;SDS011;2075;51.062;6.920;2023-02-22T12:51:16;11.87;;;7.27;;
4122;SDS011;2075;51.062;6.920;2023-02-22T12:54:10;15.93;;;6.97;;
4122;SDS011;2075;51.062;6.920;2023-02-22T12:57:04;10.67;;;7.03;;
4122;SDS011;2075;51.062;6.920;2023-02-22T12:59:56;13.48;;;8.63;;
4122;SDS011;2075;51.062;6.920;2023-02-22T13:02:47;11.93;;;7.90;;
4122;SDS011;2075;51.062;6.920;2023-02-22T13:05:40;13.40;;;8.17;;
4122;SDS011;2075;51.062;6.920;2023-02-22T13:08:27;12.37;;;7.60;;
4122;SDS011;2075;51.062;6.920;2023-02-22T13:11:21;16.77;;;7.57;;
4122;SDS011;2075;51.062;6.920;2023-02-22T13:14:19;8.80;;;7.03;;
4122;SDS011;2075;51.062;6.920;2023-02-22T13:17:20;12.93;;;6.90;;
4122;SDS011;2075;51.062;6.920;2023-02-22T13:20:15;10.13;;;7.07;;
4122;SDS011;2075;51.062;6.920;2023-02-22T13:23:07;15.93;;;7.33;;
4122;SDS011;2075;51.062;6.920;2023-02-22T13:25:58;9.50;;;6.77;;
4122;SDS011;2075;51.062;6.920;2023-02-22T13:28:54;12.60;;;7.40;;
4122;SDS011;2075;51.062;6.920;2023-02-22T13:31:52;13.57;;;7.43;;
4122;SDS011;2075;51.062;6.920;2023-02-22T13:35:05;10.00;;;7.10;;
4122;SDS011;2075;51.062;6.920;2023-02-22T13:48:22;10.83;;;7.37;;
4122;SDS011;2075;51.062;6.920;2023-02-22T13:51:17;11.00;;;7.10;;
4122;SDS011;2075;51.062;6.920;2023-02-22T13:54:18;9.83;;;7.37;;
4122;SDS011;2075;51.062;6.920;2023-02-22T13:57:17;14.87;;;6.97;;
4122;SDS011;2075;51.062;6.920;2023-02-22T14:00:37;10.90;;;7.37;;
4122;SDS011;2075;51.062;6.920;2023-02-22T14:03:36;13.70;;;7.83;;
4122;SDS011;2075;51.062;6.920;2023-02-22T14:06:34;9.50;;;7.30;;
4122;SDS011;2075;51.062;6.920;2023-02-22T14:12:46;15.57;;;8.07;;
4122;SDS011;2075;51.062;6.920;2023-02-22T14:15:32;13.57;;;8.40;;
4122;SDS011;2075;51.062;6.920;2023-02-22T14:18:18;16.33;;;9.20;;
4122;SDS011;2075;51.062;6.920;2023-02-22T14:21:06;13.00;;;7.80;;
4122;SDS011;2075;51.062;6.920;2023-02-22T14:23:53;13.73;;;8.13;;
4122;SDS011;2075;51.062;6.920;2023-02-22T14:26:43;14.93;;;8.43;;
4122;SDS011;2075;51.062;6.920;2023-02-22T14:29:47;12.53;;;8.40;;
4122;SDS011;2075;51.062;6.920;2023-02-22T14:32:36;20.67;;;8.67;;
4122;SDS011;2075;51.062;6.920;2023-02-22T14:35:22;12.73;;;8.30;;
4122;SDS011;2075;51.062;6.920;2023-02-22T14:38:13;13.20;;;8.93;;
4122;SDS011;2075;51.062;6.920;2023-02-22T14:41:01;15.87;;;9.03;;
4122;SDS011;2075;51.062;6.920;2023-02-22T14:43:47;11.80;;;7.73;;
4122;SDS011;2075;51.062;6.920;2023-02-22T14:46:34;15.07;;;8.23;;
4122;SDS011;2075;51.062;6.920;2023-02-22T14:49:25;15.53;;;9.70;;
4122;SDS011;2075;51.062;6.920;2023-02-22T14:52:17;17.30;;;10.03;;
4122;SDS011;2075;51.062;6.920;2023-02-22T14:55:13;16.37;;;8.50;;
4122;SDS011;2075;51.062;6.920;2023-02-22T14:58:06;13.70;;;9.00;;
4122;SDS011;2075;51.062;6.920;2023-02-22T15:00:56;14.87;;;9.90;;
4122;SDS011;2075;51.062;6.920;2023-02-22T15:03:41;13.93;;;9.90;;
4122;SDS011;2075;51.062;6.920;2023-02-22T15:06:27;18.67;;;9.57;;
4122;SDS011;2075;51.062;6.920;2023-02-22T15:09:15;12.80;;;8.30;;
4122;SDS011;2075;51.062;6.920;2023-02-22T15:12:11;16.73;;;9.00;;
4122;SDS011;2075;51.062;6.920;2023-02-22T15:15:14;16.90;;;9.40;;
4122;SDS011;2075;51.062;6.920;2023-02-22T15:18:09;11.60;;;8.53;;
4122;SDS011;2075;51.062;6.920;2023-02-22T15:21:05;12.70;;;9.37;;
4122;SDS011;2075;51.062;6.920;2023-02-22T15:23:54;13.63;;;9.40;;
4122;SDS011;2075;51.062;6.920;2023-02-22T15:26:42;14.40;;;9.40;;
4122;SDS011;2075;51.062;6.920;2023-02-22T15:29:30;13.83;;;8.73;;
4122;SDS011;2075;51.062;6.920;2023-02-22T15:32:27;15.23;;;9.13;;
4122;SDS011;2075;51.062;6.920;2023-02-22T15:35:15;14.50;;;9.83;;
4122;SDS011;2075;51.062;6.920;2023-02-22T15:38:03;15.10;;;9.40;;
4122;SDS011;2075;51.062;6.920;2023-02-22T15:40:58;14.77;;;8.67;;
4122;SDS011;2075;51.062;6.920;2023-02-22T15:43:55;16.67;;;9.27;;
4122;SDS011;2075;51.062;6.920;2023-02-22T15:46:43;18.17;;;8.90;;
4122;SDS011;2075;51.062;6.920;2023-02-22T15:49:28;11.10;;;7.73;;
4122;SDS011;2075;51.062;6.920;2023-02-22T15:52:19;21.83;;;8.40;;
4122;SDS011;2075;51.062;6.920;2023-02-22T15:55:08;11.93;;;8.20;;
4122;SDS011;2075;51.062;6.920;2023-02-22T15:57:55;13.67;;;8.70;;
4122;SDS011;2075;51.062;6.920;2023-02-22T16:00:44;15.93;;;8.90;;
4122;SDS011;2075;51.062;6.920;2023-02-22T16:03:35;12.00;;;7.97;;
4122;SDS011;2075;51.062;6.920;2023-02-22T16:06:28;17.40;;;8.20;;
4122;SDS011;2075;51.062;6.920;2023-02-22T16:09:18;11.90;;;7.37;;
4122;SDS011;2075;51.062;6.920;2023-02-22T16:12:08;11.30;;;7.40;;
4122;SDS011;2075;51.062;6.920;2023-02-22T16:15:13;12.10;;;7.30;;
4122;SDS011;2075;51.062;6.920;2023-02-22T16:21:10;20.30;;;9.33;;
4122;SDS011;2075;51.062;6.920;2023-02-22T16:23:57;18.83;;;10.67;;
4122;SDS011;2075;51.062;6.920;2023-02-22T16:26:59;14.60;;;8.87;;
4122;SDS011;2075;51.062;6.920;2023-02-22T16:30:01;15.20;;;8.30;;
4122;SDS011;2075;51.062;6.920;2023-02-22T16:32:51;16.83;;;8.87;;
4122;SDS011;2075;51.062;6.920;2023-02-22T16:35:38;13.70;;;8.73;;
4122;SDS011;2075;51.062;6.920;2023-02-22T16:38:35;13.60;;;9.03;;
4122;SDS011;2075;51.062;6.920;2023-02-22T16:41:22;19.13;;;10.90;;
4122;SDS011;2075;51.062;6.920;2023-02-22T16:44:07;19.70;;;11.30;;
4122;SDS011;2075;51.062;6.920;2023-02-22T16:46:55;18.23;;;9.63;;
4122;SDS011;2075;51.062;6.920;2023-02-22T16:49:42;17.67;;;10.40;;
4122;SDS011;2075;51.062;6.920;2023-02-22T16:52:28;22.60;;;10.97;;
4122;SDS011;2075;51.062;6.920;2023-02-22T16:55:16;21.83;;;10.83;;
4122;SDS011;2075;51.062;6.920;2023-02-22T16:58:03;19.23;;;11.10;;
4122;SDS011;2075;51.062;6.920;2023-02-22T17:00:49;19.07;;;11.63;;
4122;SDS011;2075;51.062;6.920;2023-02-22T17:03:35;16.47;;;11.63;;
4122;SDS011;2075;51.062;6.920;2023-02-22T17:06:20;20.53;;;13.20;;
4122;SDS011;2075;51.062;6.920;2023-02-22T17:09:06;19.40;;;11.90;;
4122;SDS011;2075;51.062;6.920;2023-02-22T17:11:53;24.03;;;13.77;;
4122;SDS011;2075;51.062;6.920;2023-02-22T17:14:39;24.17;;;15.27;;
4122;SDS011;2075;51.062;6.920;2023-02-22T17:17:29;18.80;;;12.13;;
4122;SDS011;2075;51.062;6.920;2023-02-22T17:20:15;24.53;;;13.10;;
4122;SDS011;2075;51.062;6.920;2023-02-22T17:23:08;37.03;;;15.00;;
4122;SDS011;2075;51.062;6.920;2023-02-22T17:25:54;22.10;;;13.87;;
4122;SDS011;2075;51.062;6.920;2023-02-22T17:28:43;23.80;;;13.40;;
4122;SDS011;2075;51.062;6.920;2023-02-22T17:31:29;21.93;;;12.60;;